createdAt,value
2023-04-30T00:02:01.830Z,82.36
2023-04-30T00:04:30.241Z,86.88
2023-04-30T00:06:58.259Z,85.02
2023-04-30T00:09:26.163Z,85.75
2023-04-30T00:11:54.553Z,85.62
2023-04-30T00:14:22.585Z,85.76
2023-04-30T00:16:50.871Z,87.00
2023-04-30T00:19:19.588Z,88.20
2023-04-30T00:21:48.049Z,86.95
2023-04-30T00:24:16.113Z,86.24
2023-04-30T00:26:44.527Z,86.52
2023-04-30T00:29:12.841Z,85.56
2023-04-30T00:31:41.027Z,84.38
2023-04-30T00:34:09.562Z,79.72
2023-04-30T00:36:37.467Z,78.26
2023-04-30T00:39:06.118Z,77.95
2023-04-30T00:41:36.482Z,77.67
2023-04-30T00:44:04.911Z,77.31
2023-04-30T00:46:33.069Z,77.73
2023-04-30T00:49:05.641Z,78.29
2023-04-30T00:51:34.485Z,77.93
2023-04-30T00:54:03.968Z,77.69
2023-04-30T00:56:32.584Z,78.12
2023-04-30T00:59:00.750Z,80.56
2023-04-30T01:01:29.628Z,82.52
2023-04-30T01:03:57.851Z,82.09
2023-04-30T01:06:27.263Z,81.90
2023-04-30T01:08:57.609Z,83.18
2023-04-30T01:11:38.031Z,84.05
2023-04-30T01:14:12.994Z,84.75
2023-04-30T01:17:05.048Z,83.44
2023-04-30T01:19:45.090Z,86.09
2023-04-30T01:22:28.555Z,86.49
2023-04-30T01:25:12.030Z,87.16
2023-04-30T01:28:07.222Z,84.39
2023-04-30T01:30:37.630Z,80.15
2023-04-30T01:33:05.710Z,82.39
2023-04-30T01:35:43.004Z,84.63
2023-04-30T01:38:27.738Z,88.93
2023-04-30T01:41:04.532Z,93.47
2023-04-30T01:43:46.073Z,97.32
2023-04-30T01:46:29.384Z,98.14
2023-04-30T01:49:20.211Z,97.84
2023-04-30T01:51:56.445Z,98.90
2023-04-30T01:54:46.632Z,100.00
2023-04-30T01:57:23.351Z,100.00
2023-04-30T01:59:52.525Z,100.00
2023-04-30T02:02:21.091Z,100.00
2023-04-30T02:04:49.521Z,98.97
2023-04-30T02:07:38.479Z,94.15
2023-04-30T02:10:08.801Z,92.50
2023-04-30T02:12:36.811Z,93.25
2023-04-30T02:15:05.865Z,96.53
2023-04-30T02:17:34.249Z,91.97
2023-04-30T02:20:02.443Z,90.61
2023-04-30T02:22:32.888Z,88.05
2023-04-30T02:25:01.376Z,84.80
2023-04-30T02:27:34.195Z,82.88
2023-04-30T02:30:03.061Z,85.41
2023-04-30T02:32:33.928Z,87.99
2023-04-30T02:35:02.703Z,86.13
2023-04-30T02:37:31.891Z,83.16
2023-04-30T02:40:00.027Z,85.84
2023-04-30T02:42:28.491Z,84.77
2023-04-30T02:44:56.449Z,87.80
2023-04-30T02:47:24.429Z,93.52
2023-04-30T02:49:53.186Z,96.88
2023-04-30T02:52:21.365Z,91.90
2023-04-30T02:54:49.580Z,89.28
2023-04-30T02:57:17.954Z,87.93
2023-04-30T02:59:46.560Z,84.45
2023-04-30T03:02:15.138Z,83.63
2023-04-30T03:04:43.589Z,86.90
2023-04-30T03:07:11.872Z,91.10
2023-04-30T03:09:39.857Z,92.13
2023-04-30T03:12:08.180Z,92.46
2023-04-30T03:14:36.259Z,90.32
2023-04-30T03:17:04.239Z,82.26
2023-04-30T03:19:32.681Z,84.51
2023-04-30T03:22:00.912Z,80.05
2023-04-30T03:24:28.848Z,83.99
2023-04-30T03:26:57.296Z,83.60
2023-04-30T03:29:25.242Z,80.26
2023-04-30T03:31:53.308Z,80.62
2023-04-30T03:34:21.894Z,85.39
2023-04-30T03:36:49.925Z,86.34
2023-04-30T03:39:17.945Z,83.66
2023-04-30T03:41:46.354Z,84.70
2023-04-30T03:44:16.203Z,80.99
2023-04-30T03:46:44.500Z,77.39
2023-04-30T03:49:12.862Z,77.00
2023-04-30T03:51:42.332Z,76.95
2023-04-30T03:54:10.733Z,76.64
2023-04-30T03:56:39.559Z,79.83
2023-04-30T03:59:07.608Z,76.21
2023-04-30T04:01:35.711Z,75.40
2023-04-30T04:04:04.263Z,76.39
2023-04-30T04:06:33.251Z,75.38
2023-04-30T04:09:01.292Z,74.50
2023-04-30T04:11:29.701Z,73.38
2023-04-30T04:13:58.139Z,76.21
2023-04-30T04:16:27.314Z,73.79
2023-04-30T04:18:55.667Z,75.51
2023-04-30T04:21:23.763Z,74.99
2023-04-30T04:23:51.950Z,79.65
2023-04-30T04:26:22.171Z,74.67
2023-04-30T04:28:50.482Z,83.67
2023-04-30T04:31:18.772Z,80.17
2023-04-30T04:33:48.280Z,76.29
2023-04-30T04:36:17.636Z,73.17
2023-04-30T04:38:46.413Z,74.48
2023-04-30T04:41:17.506Z,72.38
2023-04-30T04:43:46.324Z,77.01
2023-04-30T04:46:17.223Z,78.50
2023-04-30T04:48:45.320Z,74.16
2023-04-30T04:51:13.457Z,73.60
2023-04-30T04:53:41.814Z,76.18
2023-04-30T04:56:11.446Z,74.63
2023-04-30T04:58:40.322Z,73.67
2023-04-30T05:01:09.504Z,73.09
2023-04-30T05:03:37.680Z,73.70
2023-04-30T05:06:06.514Z,72.86
2023-04-30T05:08:34.898Z,73.47
2023-04-30T05:11:02.944Z,74.36
2023-04-30T05:13:30.995Z,74.91
2023-04-30T05:15:59.452Z,73.16
2023-04-30T05:18:27.637Z,74.29
2023-04-30T05:20:55.621Z,75.79
2023-04-30T05:23:23.823Z,71.52
2023-04-30T05:25:55.678Z,72.38
2023-04-30T05:28:23.983Z,70.60
2023-04-30T05:30:52.186Z,70.93
2023-04-30T05:33:20.222Z,70.46
2023-04-30T05:35:48.534Z,69.56
2023-04-30T05:38:17.557Z,69.47
2023-04-30T05:40:45.526Z,69.61
2023-04-30T05:43:14.002Z,68.24
2023-04-30T05:45:42.085Z,67.35
2023-04-30T05:48:10.062Z,67.29
2023-04-30T05:50:38.433Z,66.01
2023-04-30T05:53:06.352Z,60.94
2023-04-30T05:55:34.928Z,62.94
2023-04-30T05:58:03.189Z,64.43
2023-04-30T06:00:31.574Z,64.90
2023-04-30T06:02:59.817Z,65.70
2023-04-30T06:05:28.062Z,65.90
2023-04-30T06:07:56.076Z,64.88
2023-04-30T06:10:24.817Z,64.03
2023-04-30T06:12:52.955Z,65.31
2023-04-30T06:15:21.081Z,65.76
2023-04-30T06:17:49.577Z,61.92
2023-04-30T06:20:17.664Z,63.40
2023-04-30T06:22:45.685Z,61.51
2023-04-30T06:25:14.165Z,60.65
2023-04-30T06:27:42.262Z,59.36
2023-04-30T06:30:10.537Z,59.21
2023-04-30T06:32:39.108Z,52.69
2023-04-30T06:35:07.502Z,62.19
2023-04-30T06:37:38.270Z,59.73
2023-04-30T06:40:07.693Z,55.39
2023-04-30T06:42:36.342Z,54.88
2023-04-30T06:45:06.987Z,58.50
2023-04-30T06:47:38.355Z,57.33
2023-04-30T06:50:07.500Z,54.47
2023-04-30T06:52:36.365Z,57.81
2023-04-30T06:55:04.527Z,56.69
2023-04-30T06:57:32.787Z,54.04
2023-04-30T07:00:01.278Z,54.92
2023-04-30T07:02:34.667Z,53.67
2023-04-30T07:05:03.307Z,55.45
2023-04-30T07:07:43.694Z,55.98
2023-04-30T07:10:24.744Z,56.68
2023-04-30T07:12:52.798Z,57.02
2023-04-30T07:15:21.332Z,50.64
2023-04-30T07:17:49.509Z,49.40
2023-04-30T07:20:18.034Z,56.92
2023-04-30T07:22:46.949Z,55.95
2023-04-30T07:25:15.479Z,50.30
2023-04-30T07:27:43.695Z,55.13
2023-04-30T07:30:12.155Z,58.80
2023-04-30T07:32:41.891Z,56.69
2023-04-30T07:35:10.418Z,56.96
2023-04-30T07:37:41.005Z,56.30
2023-04-30T07:40:22.009Z,56.72
2023-04-30T07:42:57.973Z,55.96
2023-04-30T07:45:26.045Z,55.49
2023-04-30T07:47:54.182Z,55.93
2023-04-30T07:50:25.914Z,48.32
2023-04-30T07:52:54.007Z,55.27
2023-04-30T07:55:22.590Z,56.74
2023-04-30T07:57:50.526Z,55.31
2023-04-30T08:00:18.634Z,54.10
2023-04-30T08:02:48.951Z,55.83
2023-04-30T08:05:17.148Z,48.74
2023-04-30T08:07:45.281Z,44.77
2023-04-30T08:10:13.936Z,48.78
2023-04-30T08:12:41.986Z,47.37
2023-04-30T08:15:10.132Z,47.89
2023-04-30T08:17:38.689Z,55.60
2023-04-30T08:20:07.248Z,50.81
2023-04-30T08:22:35.375Z,44.44
2023-04-30T08:25:04.149Z,51.73
2023-04-30T08:27:32.767Z,52.28
2023-04-30T08:30:01.013Z,52.78
2023-04-30T08:32:37.671Z,49.21
2023-04-30T08:35:06.725Z,49.77
2023-04-30T08:37:35.446Z,47.46
2023-04-30T08:40:05.123Z,45.53
2023-04-30T08:42:37.684Z,41.67
2023-04-30T08:45:09.198Z,46.19
2023-04-30T08:47:38.794Z,44.64
2023-04-30T08:50:17.885Z,46.46
2023-04-30T08:52:46.283Z,44.56
2023-04-30T08:55:14.859Z,37.31
2023-04-30T08:57:43.120Z,38.66
2023-04-30T09:00:11.968Z,52.23
2023-04-30T09:02:45.489Z,47.57
2023-04-30T09:05:15.266Z,42.13
2023-04-30T09:10:30.017Z,43.52
2023-04-30T09:13:09.660Z,41.58
2023-04-30T09:15:41.603Z,45.14
2023-04-30T09:18:17.990Z,50.67
2023-04-30T09:21:06.024Z,48.93
2023-04-30T09:23:34.565Z,40.79
2023-04-30T09:26:02.557Z,50.34
2023-04-30T09:28:31.166Z,51.52
2023-04-30T09:31:00.237Z,40.43
2023-04-30T09:33:40.824Z,43.45
2023-04-30T09:36:10.353Z,53.58
2023-04-30T09:39:02.988Z,42.57
2023-04-30T09:41:31.699Z,41.53
2023-04-30T09:44:00.699Z,54.87
2023-04-30T09:46:34.083Z,47.12
2023-04-30T09:49:04.399Z,51.57
2023-04-30T09:51:33.123Z,43.53
2023-04-30T09:54:04.867Z,41.70
2023-04-30T09:56:39.793Z,52.50
2023-04-30T09:59:10.480Z,42.41
2023-04-30T10:01:41.167Z,46.65
2023-04-30T10:04:10.277Z,50.79
2023-04-30T10:06:43.281Z,50.24
2023-04-30T10:09:16.404Z,49.26
2023-04-30T10:11:58.422Z,49.61
2023-04-30T10:14:29.469Z,48.47
2023-04-30T10:17:20.919Z,45.21
2023-04-30T10:19:53.396Z,50.13
2023-04-30T10:22:22.413Z,51.35
2023-04-30T10:24:51.424Z,48.76
2023-04-30T10:27:20.301Z,47.75
2023-04-30T10:29:51.427Z,44.08
2023-04-30T10:32:53.858Z,50.91
2023-04-30T10:35:35.958Z,42.69
2023-04-30T10:38:33.060Z,49.91
2023-04-30T10:41:02.808Z,44.01
2023-04-30T10:43:32.322Z,50.63
2023-04-30T10:46:05.243Z,44.42
2023-04-30T10:48:36.406Z,43.98
2023-04-30T10:51:04.895Z,55.26
2023-04-30T10:53:34.192Z,47.76
2023-04-30T10:56:14.995Z,50.79
2023-04-30T10:58:44.936Z,47.19
2023-04-30T11:01:16.098Z,45.19
2023-04-30T11:04:12.130Z,49.04
2023-04-30T11:07:04.491Z,52.91
2023-04-30T11:09:45.846Z,52.78
2023-04-30T11:12:28.996Z,51.31
2023-04-30T11:15:13.333Z,54.87
2023-04-30T11:17:46.350Z,51.20
2023-04-30T11:20:20.520Z,51.98
2023-04-30T11:23:11.666Z,45.74
2023-04-30T11:25:47.336Z,54.66
2023-04-30T11:28:20.099Z,52.01
2023-04-30T11:30:55.372Z,50.70
2023-04-30T11:33:26.109Z,53.90
2023-04-30T11:35:56.766Z,49.40
2023-04-30T11:38:30.829Z,54.97
2023-04-30T11:41:00.180Z,55.86
2023-04-30T11:43:31.837Z,54.40
2023-04-30T11:46:00.702Z,53.07
2023-04-30T11:48:37.089Z,53.31
2023-04-30T11:51:22.262Z,51.42
2023-04-30T11:53:52.527Z,53.49
2023-04-30T11:56:26.236Z,53.06
2023-04-30T11:58:56.163Z,48.40
2023-04-30T12:01:29.200Z,51.42
2023-04-30T12:04:10.829Z,53.07
2023-04-30T12:06:44.234Z,51.95
2023-04-30T12:09:13.792Z,50.41
2023-04-30T12:11:45.123Z,53.71
2023-04-30T12:14:15.474Z,53.41
2023-04-30T12:17:01.868Z,54.49
2023-04-30T12:19:42.300Z,54.21
2023-04-30T12:22:11.415Z,53.56
2023-04-30T12:24:43.367Z,52.98
2023-04-30T12:27:36.577Z,55.51
2023-04-30T12:30:13.664Z,55.49
2023-04-30T12:32:54.030Z,55.93
2023-04-30T12:35:24.514Z,55.23
2023-04-30T12:38:17.168Z,56.38
2023-04-30T12:40:49.748Z,56.11
2023-04-30T12:43:24.684Z,57.46
2023-04-30T12:46:05.151Z,56.59
2023-04-30T12:48:47.924Z,60.50
2023-04-30T12:51:20.243Z,59.53
2023-04-30T12:53:51.138Z,62.34
2023-04-30T12:56:20.550Z,65.89
2023-04-30T12:59:02.547Z,65.27
2023-04-30T13:01:34.346Z,68.45
2023-04-30T13:04:17.799Z,69.16
2023-04-30T13:06:46.823Z,69.81
2023-04-30T13:09:18.626Z,70.31
2023-04-30T13:11:48.143Z,67.88
2023-04-30T13:14:18.226Z,71.39
2023-04-30T13:16:46.709Z,72.40
2023-04-30T13:19:16.378Z,71.38
2023-04-30T13:21:44.714Z,71.46
2023-04-30T13:24:12.923Z,73.74
2023-04-30T13:26:41.659Z,73.59
2023-04-30T13:29:10.056Z,73.88
2023-04-30T13:31:38.261Z,74.74
2023-04-30T13:34:07.151Z,76.85
2023-04-30T13:36:35.995Z,76.11
2023-04-30T13:39:05.205Z,76.45
2023-04-30T13:41:46.152Z,76.14
2023-04-30T13:44:14.464Z,76.75
2023-04-30T13:46:43.075Z,77.93
2023-04-30T13:49:11.956Z,76.72
2023-04-30T13:51:47.598Z,74.68
2023-04-30T13:54:18.037Z,76.83
2023-04-30T13:56:47.026Z,77.57
2023-04-30T13:59:16.402Z,78.28
2023-04-30T14:01:44.840Z,72.42
2023-04-30T14:04:25.491Z,73.59
2023-04-30T14:06:56.969Z,71.25
2023-04-30T14:09:25.786Z,75.93
2023-04-30T14:11:56.743Z,72.10
2023-04-30T14:14:25.631Z,76.42
2023-04-30T14:16:54.357Z,74.19
2023-04-30T14:19:23.587Z,75.67
2023-04-30T14:21:52.008Z,78.27
2023-04-30T14:24:20.706Z,78.99
2023-04-30T14:26:48.910Z,76.98
2023-04-30T14:29:17.126Z,83.17
2023-04-30T14:31:59.289Z,80.82
2023-04-30T14:34:28.277Z,85.77
2023-04-30T14:36:59.796Z,80.17
2023-04-30T14:39:28.414Z,86.35
2023-04-30T14:41:57.510Z,84.83
2023-04-30T14:44:28.367Z,86.95
2023-04-30T14:46:58.356Z,86.66
2023-04-30T14:49:26.568Z,82.78
2023-04-30T14:51:55.299Z,84.88
2023-04-30T14:54:24.222Z,87.53
2023-04-30T14:56:53.300Z,83.56
2023-04-30T14:59:22.970Z,80.47
2023-04-30T15:01:51.990Z,79.33
2023-04-30T15:04:20.194Z,79.34
2023-04-30T15:06:48.477Z,83.86
2023-04-30T15:09:17.351Z,75.77
2023-04-30T15:11:45.433Z,83.61
2023-04-30T15:17:08.970Z,79.34
2023-04-30T15:19:38.060Z,87.27
2023-04-30T15:22:07.709Z,83.91
2023-04-30T15:24:48.355Z,82.02
2023-04-30T15:27:16.862Z,85.74
2023-04-30T15:29:48.022Z,85.05
2023-04-30T15:32:18.156Z,89.71
2023-04-30T15:34:48.422Z,93.48
2023-04-30T15:37:17.506Z,92.28
2023-04-30T15:39:46.769Z,91.31
2023-04-30T15:42:18.895Z,95.94
2023-04-30T15:44:59.096Z,97.79
2023-04-30T15:47:27.697Z,96.61
2023-04-30T15:49:56.166Z,98.10
2023-04-30T15:52:24.950Z,97.15
2023-04-30T15:54:53.880Z,98.61
2023-04-30T15:57:22.460Z,99.12
2023-04-30T15:59:51.147Z,99.10
2023-04-30T16:02:19.595Z,97.20
2023-04-30T16:04:48.105Z,93.20
2023-04-30T16:07:16.321Z,96.61
2023-04-30T16:09:46.254Z,97.39
2023-04-30T16:12:30.075Z,93.75
2023-04-30T16:15:11.231Z,97.08
2023-04-30T16:17:39.728Z,97.99
2023-04-30T16:20:08.673Z,86.86
2023-04-30T16:22:37.726Z,92.29
2023-04-30T16:25:08.629Z,96.33
2023-04-30T16:27:50.178Z,96.04
2023-04-30T16:30:18.910Z,95.74
2023-04-30T16:32:47.497Z,99.64
2023-04-30T16:35:15.984Z,95.58
2023-04-30T16:37:44.527Z,95.10
2023-04-30T16:40:13.012Z,94.79
2023-04-30T16:42:42.084Z,96.36
2023-04-30T16:45:11.285Z,98.07
2023-04-30T16:47:39.987Z,92.19
2023-04-30T16:50:08.964Z,95.58
2023-04-30T16:52:37.519Z,91.02
2023-04-30T16:55:06.544Z,92.75
2023-04-30T16:57:34.853Z,97.25
2023-04-30T17:00:04.438Z,97.60
2023-04-30T17:02:34.428Z,93.89
2023-04-30T17:05:02.793Z,93.15
2023-04-30T17:07:34.457Z,92.29
2023-04-30T17:10:02.752Z,95.41
2023-04-30T17:12:31.695Z,91.93
2023-04-30T17:15:24.808Z,95.29
2023-04-30T17:18:05.184Z,96.65
2023-04-30T17:20:34.129Z,99.86
2023-04-30T17:23:02.468Z,100.00
2023-04-30T17:25:32.361Z,100.00
2023-04-30T17:28:01.882Z,100.00
2023-04-30T17:30:30.081Z,100.00
2023-04-30T17:33:00.571Z,100.00
2023-04-30T17:35:29.262Z,96.58
2023-04-30T17:37:57.672Z,98.89
2023-04-30T17:40:26.656Z,100.00
2023-04-30T17:42:55.605Z,94.64
2023-04-30T17:45:23.987Z,94.02
2023-04-30T17:47:52.376Z,90.21
2023-04-30T17:50:21.655Z,91.16
2023-04-30T17:52:51.500Z,94.35
2023-04-30T17:55:19.755Z,97.46
2023-04-30T17:57:48.525Z,96.13
2023-04-30T18:00:17.982Z,93.40
2023-04-30T18:02:47.807Z,97.86
2023-04-30T18:05:17.072Z,100.00
2023-04-30T18:07:45.302Z,100.00
2023-04-30T18:10:23.555Z,98.00
2023-04-30T18:12:53.858Z,100.00
2023-04-30T18:15:35.392Z,100.00
2023-04-30T18:18:11.422Z,100.00
2023-04-30T18:20:42.537Z,100.00
2023-04-30T18:23:13.742Z,100.00
2023-04-30T18:25:44.343Z,99.56
2023-04-30T18:28:13.731Z,100.00
2023-04-30T18:30:55.223Z,100.00
2023-04-30T18:33:23.593Z,100.00
2023-04-30T18:35:52.857Z,100.00
2023-04-30T18:38:21.511Z,100.00
2023-04-30T18:40:56.185Z,100.00
2023-04-30T18:43:24.927Z,100.00
2023-04-30T18:45:53.995Z,100.00
2023-04-30T18:48:23.396Z,100.00
2023-04-30T18:51:03.874Z,100.00
2023-04-30T18:53:32.066Z,100.00
2023-04-30T18:56:00.331Z,100.00
2023-04-30T18:58:29.331Z,100.00
2023-04-30T19:01:13.560Z,100.00
2023-04-30T19:03:42.761Z,100.00
2023-04-30T19:06:11.273Z,100.00
2023-04-30T19:08:40.044Z,100.00
2023-04-30T19:11:09.818Z,100.00
2023-04-30T19:13:42.540Z,100.00
2023-04-30T19:16:13.461Z,100.00
2023-04-30T19:18:54.254Z,100.00
2023-04-30T19:21:24.030Z,100.00
2023-04-30T19:23:52.442Z,100.00
2023-04-30T19:26:22.946Z,100.00
2023-04-30T19:28:52.045Z,100.00
2023-04-30T19:31:20.531Z,100.00
2023-04-30T19:33:49.130Z,100.00
2023-04-30T19:36:18.012Z,100.00
2023-04-30T19:38:46.189Z,100.00
2023-04-30T19:41:14.291Z,100.00
2023-04-30T19:43:42.725Z,100.00
2023-04-30T19:46:12.532Z,100.00
2023-04-30T19:48:41.755Z,100.00
2023-04-30T19:51:10.397Z,100.00
2023-04-30T19:53:38.928Z,100.00
2023-04-30T19:56:19.980Z,100.00
2023-04-30T19:59:00.178Z,100.00
2023-04-30T20:01:29.782Z,100.00
2023-04-30T20:03:58.477Z,100.00
2023-04-30T20:06:27.226Z,100.00
2023-04-30T20:09:08.231Z,100.00
2023-04-30T20:11:36.828Z,100.00
2023-04-30T20:14:17.488Z,100.00
2023-04-30T20:16:46.896Z,100.00
2023-04-30T20:19:15.182Z,100.00
2023-04-30T20:21:43.373Z,100.00
2023-04-30T20:24:12.202Z,100.00
2023-04-30T20:26:40.669Z,100.00
2023-04-30T20:29:08.949Z,100.00
2023-04-30T20:31:38.093Z,100.00
2023-04-30T20:34:06.099Z,100.00
2023-04-30T20:36:37.189Z,100.00
2023-04-30T20:39:05.562Z,100.00
2023-04-30T20:41:35.604Z,100.00
2023-04-30T20:44:03.741Z,100.00
2023-04-30T20:46:32.624Z,100.00
2023-04-30T20:49:04.939Z,100.00
2023-04-30T20:51:45.401Z,100.00
2023-04-30T20:54:13.445Z,100.00
2023-04-30T20:56:43.744Z,100.00
2023-04-30T20:59:11.825Z,100.00
2023-04-30T21:01:40.354Z,100.00
2023-04-30T21:04:09.737Z,100.00
2023-04-30T21:06:38.720Z,100.00
2023-04-30T21:09:07.493Z,100.00
2023-04-30T21:11:39.397Z,100.00
2023-04-30T21:14:07.432Z,100.00
2023-04-30T21:16:36.089Z,100.00
2023-04-30T21:19:04.655Z,100.00
2023-04-30T21:21:32.655Z,100.00
2023-04-30T21:24:01.433Z,100.00
2023-04-30T21:26:29.875Z,100.00
2023-04-30T21:28:58.099Z,100.00
2023-04-30T21:31:26.136Z,100.00
2023-04-30T21:33:54.898Z,100.00
2023-04-30T21:36:35.752Z,100.00
2023-04-30T21:39:04.752Z,100.00
2023-04-30T21:41:32.677Z,100.00
2023-04-30T21:44:01.066Z,100.00
2023-04-30T21:46:29.443Z,100.00
2023-04-30T21:48:57.582Z,100.00
2023-04-30T21:51:26.249Z,100.00
2023-04-30T21:53:54.865Z,100.00
2023-04-30T21:56:22.829Z,100.00
2023-04-30T21:58:50.904Z,100.00
2023-04-30T22:01:20.177Z,100.00
2023-04-30T22:03:48.809Z,100.00
2023-04-30T22:06:16.804Z,100.00
2023-04-30T22:08:44.985Z,100.00
2023-04-30T22:11:25.594Z,100.00
2023-04-30T22:13:53.774Z,100.00
2023-04-30T22:16:22.216Z,100.00
2023-04-30T22:18:50.419Z,100.00
2023-04-30T22:21:18.390Z,100.00
2023-04-30T22:23:58.958Z,100.00
2023-04-30T22:26:27.270Z,100.00
2023-04-30T22:28:55.532Z,100.00
2023-04-30T22:31:23.764Z,100.00
2023-04-30T22:33:52.011Z,100.00
2023-04-30T22:36:19.985Z,100.00
2023-04-30T22:38:48.511Z,100.00
2023-04-30T22:41:16.651Z,100.00
2023-04-30T22:43:47.918Z,100.00
2023-04-30T22:46:16.791Z,100.00
2023-04-30T22:48:44.948Z,100.00
2023-04-30T22:51:13.169Z,100.00
2023-04-30T22:53:41.648Z,100.00
2023-04-30T22:56:13.680Z,100.00
2023-04-30T22:58:42.151Z,100.00
2023-04-30T23:01:10.216Z,100.00
2023-04-30T23:03:39.026Z,100.00
2023-04-30T23:06:07.544Z,100.00
2023-04-30T23:08:35.533Z,100.00
2023-04-30T23:11:05.311Z,100.00
2023-04-30T23:13:33.742Z,100.00
2023-04-30T23:16:06.131Z,100.00
2023-04-30T23:18:34.483Z,100.00
2023-04-30T23:21:02.468Z,100.00
2023-04-30T23:23:30.781Z,100.00
2023-04-30T23:25:59.329Z,100.00
2023-04-30T23:28:27.585Z,100.00
2023-04-30T23:30:55.943Z,100.00
2023-04-30T23:33:24.514Z,100.00
2023-04-30T23:35:54.121Z,100.00
2023-04-30T23:38:22.361Z,100.00
2023-04-30T23:40:50.768Z,100.00
2023-04-30T23:43:19.333Z,100.00
2023-04-30T23:45:47.285Z,100.00
2023-04-30T23:48:16.032Z,100.00
2023-04-30T23:50:44.151Z,100.00
2023-04-30T23:53:12.844Z,100.00
2023-04-30T23:55:41.795Z,100.00
2023-04-30T23:58:09.754Z,100.00
